Time;durP1;ratioP1;P1;durP2;ratioP2;P2;SDS_P1;SDS_P2;PMS_P1;PMS_P2;Temp;Humidity;BMP_temperature;BMP_pressure;BME280_temperature;BME280_humidity;BME280_pressure;Samples;Min_cycle;Max_cycle;Signal;HPM_P1;HPM_P2
2022/04/04 00:00:52;;;;;;;5.38;4.53;;;;;;;-2.98;100.00;96140.06;5032069;28;24423;-70
2022/04/04 00:03:19;;;;;;;7.63;5.13;;;;;;;-2.86;100.00;96140.00;5032239;28;24450;-70
2022/04/04 00:05:47;;;;;;;5.97;5.38;;;;;;;-2.82;100.00;96144.22;5032218;28;24446;-70
2022/04/04 00:08:14;;;;;;;6.78;4.53;;;;;;;-2.78;100.00;96145.03;5032016;28;24945;-70
2022/04/04 00:10:41;;;;;;;6.80;4.72;;;;;;;-2.78;100.00;96137.44;5031949;28;24867;-70
2022/04/04 00:13:08;;;;;;;5.15;4.63;;;;;;;-2.83;100.00;96132.41;5032254;28;24415;-70
2022/04/04 00:15:35;;;;;;;5.13;4.50;;;;;;;-2.85;100.00;96133.28;5031910;28;24474;-70
2022/04/04 00:18:06;;;;;;;5.85;4.53;;;;;;;-2.86;100.00;96142.53;5032052;28;24808;-70
2022/04/04 00:20:32;;;;;;;4.78;4.20;;;;;;;-2.85;100.00;96133.28;5031575;28;24424;-70
2022/04/04 00:22:59;;;;;;;5.10;4.25;;;;;;;-2.84;100.00;96129.88;5031668;28;24527;-70
2022/04/04 00:25:25;;;;;;;5.03;4.30;;;;;;;-2.89;100.00;96121.44;5031547;28;24824;-70
2022/04/04 00:27:52;;;;;;;5.75;4.55;;;;;;;-2.96;100.00;96129.09;5031871;28;24495;-70
2022/04/04 00:30:19;;;;;;;5.75;4.40;;;;;;;-2.93;100.00;96130.75;5031590;28;24426;-70
2022/04/04 00:32:46;;;;;;;7.85;4.65;;;;;;;-3.02;100.00;96126.56;5031602;28;24773;-70
2022/04/04 00:35:12;;;;;;;5.57;4.57;;;;;;;-3.11;100.00;96123.25;5031682;28;24422;-71
2022/04/04 00:37:39;;;;;;;5.18;4.68;;;;;;;-3.22;100.00;96129.19;5031688;28;24836;-70
2022/04/04 00:40:06;;;;;;;5.07;4.40;;;;;;;-3.34;100.00;96133.44;5031376;28;24427;-70
2022/04/04 00:42:33;;;;;;;5.30;4.32;;;;;;;-3.25;100.00;96128.38;5031420;28;24442;-70
2022/04/04 00:45:00;;;;;;;5.90;4.18;;;;;;;-3.31;100.00;96138.50;5031703;28;24420;-70
2022/04/04 00:47:28;;;;;;;5.45;4.47;;;;;;;-3.32;100.00;96136.81;5031664;28;24432;-70
2022/04/04 00:49:54;;;;;;;6.03;4.63;;;;;;;-3.47;100.00;96132.66;5031115;28;24431;-70
2022/04/04 00:52:20;;;;;;;9.50;4.95;;;;;;;-3.60;100.00;96129.28;5031350;28;24466;-70
2022/04/04 00:54:47;;;;;;;5.32;4.28;;;;;;;-3.63;100.00;96130.97;5031284;28;24481;-70
2022/04/04 00:57:14;;;;;;;5.28;4.28;;;;;;;-3.65;100.00;96131.00;5031139;28;24415;-69
2022/04/04 00:59:41;;;;;;;6.95;4.72;;;;;;;-3.60;100.00;96125.91;5030970;28;24419;-70
2022/04/04 01:02:07;;;;;;;5.97;4.97;;;;;;;-3.61;100.00;96111.56;5030933;28;25054;-70
2022/04/04 01:04:35;;;;;;;7.47;5.00;;;;;;;-3.61;100.00;96119.16;5031183;28;24419;-70
2022/04/04 01:07:03;;;;;;;5.77;5.23;;;;;;;-3.63;100.00;96114.13;5031025;28;24945;-70
2022/04/04 01:09:31;;;;;;;10.27;5.55;;;;;;;-3.56;100.00;96118.31;5031047;28;24530;-70
2022/04/04 01:12:06;;;;;;;7.60;5.22;;;;;;;-3.55;100.00;96121.69;5030766;28;24408;-70
2022/04/04 01:14:35;;;;;;;5.60;4.20;;;;;;;-3.73;100.00;96118.34;5031350;28;24415;-70
2022/04/04 01:17:01;;;;;;;4.93;4.40;;;;;;;-3.82;100.00;96117.50;5030788;28;25080;-70
2022/04/04 01:19:28;;;;;;;5.00;4.50;;;;;;;-3.88;100.00;96110.78;5030800;28;24789;-70
2022/04/04 01:21:55;;;;;;;4.75;4.15;;;;;;;-3.88;100.00;96118.38;5030493;28;24805;-70
2022/04/04 01:24:24;;;;;;;8.27;4.60;;;;;;;-3.92;100.00;96116.69;5030902;28;24786;-70
2022/04/04 01:26:52;;;;;;;5.50;4.10;;;;;;;-3.95;100.00;96124.28;5030730;28;24470;-70
2022/04/04 01:29:21;;;;;;;5.80;4.55;;;;;;;-3.91;100.00;96119.22;5030268;28;24765;-70
2022/04/04 01:31:48;;;;;;;6.72;4.22;;;;;;;-3.99;100.00;96108.25;5030712;28;24424;-70
2022/04/04 01:34:14;;;;;;;4.78;4.10;;;;;;;-4.14;100.00;96101.53;5030734;28;24427;-70
2022/04/04 01:36:41;;;;;;;5.80;4.63;;;;;;;-4.32;100.00;96099.00;5030067;28;24412;-70
2022/04/04 01:39:07;;;;;;;5.25;4.75;;;;;;;-4.35;100.00;96098.16;5031016;28;24474;-70
2022/04/04 01:41:35;;;;;;;5.13;4.63;;;;;;;-4.28;100.00;96088.03;5030336;28;24443;-70
2022/04/04 01:44:02;;;;;;;5.75;4.35;;;;;;;-4.17;100.00;96090.56;5030541;28;24474;-70
2022/04/04 01:46:28;;;;;;;6.32;4.45;;;;;;;-4.14;100.00;96088.03;5030515;28;24514;-70
2022/04/04 01:48:57;;;;;;;4.55;4.15;;;;;;;-4.00;100.00;96093.94;5030424;28;24990;-70
2022/04/04 01:51:24;;;;;;;4.67;3.77;;;;;;;-3.97;100.00;96086.34;5030192;28;24469;-70
2022/04/04 01:53:51;;;;;;;6.22;4.85;;;;;;;-4.06;100.00;96091.41;5030272;28;24447;-70
2022/04/04 01:56:17;;;;;;;4.50;4.10;;;;;;;-4.04;100.00;96088.84;5030463;28;24516;-70
2022/04/04 01:58:45;;;;;;;4.97;4.47;;;;;;;-4.16;100.00;96088.03;5030445;28;24455;-70
2022/04/04 02:01:15;;;;;;;4.88;4.38;;;;;;;-4.36;100.00;96086.34;5030235;28;24420;-70
2022/04/04 02:03:43;;;;;;;5.13;4.30;;;;;;;-4.49;100.00;96080.44;5030300;28;24444;-70
2022/04/04 02:06:09;;;;;;;6.82;4.60;;;;;;;-4.46;100.00;96088.03;5030240;28;24423;-70
2022/04/04 02:08:36;;;;;;;4.45;3.95;;;;;;;-4.36;100.00;96083.81;5030281;28;24466;-70
2022/04/04 02:11:04;;;;;;;5.28;4.35;;;;;;;-4.33;100.00;96081.31;5030202;28;24477;-70
2022/04/04 02:13:30;;;;;;;6.45;4.25;;;;;;;-4.36;100.00;96082.13;5030183;28;24481;-70
2022/04/04 02:16:00;;;;;;;5.93;4.30;;;;;;;-4.39;100.00;96075.38;5030186;28;24420;-70
2022/04/04 02:18:28;;;;;;;5.35;4.28;;;;;;;-4.43;100.00;96070.34;5030463;28;24420;-70
2022/04/04 02:20:54;;;;;;;6.27;4.23;;;;;;;-4.45;100.00;96072.00;5060201;23;25069;-74
2022/04/04 02:23:22;;;;;;;4.93;4.25;;;;;;;-4.42;100.00;96066.97;5010399;28;24459;-74
2022/04/04 02:25:50;;;;;;;5.13;3.95;;;;;;;-4.34;100.00;96065.25;5010626;28;24435;-74
2022/04/04 02:28:17;;;;;;;4.53;4.13;;;;;;;-4.24;100.00;96071.16;5010745;28;24424;-74
2022/04/04 02:30:45;;;;;;;5.50;3.97;;;;;;;-4.22;100.00;96065.28;5011357;28;24427;-74
2022/04/04 02:33:13;;;;;;;4.97;3.58;;;;;;;-4.23;100.00;96068.63;5011660;28;24435;-74
2022/04/04 02:35:40;;;;;;;4.78;4.28;;;;;;;-4.19;100.00;96056.81;5010712;28;24455;-74
2022/04/04 02:38:07;;;;;;;7.15;3.63;;;;;;;-4.21;100.00;96059.38;5010697;28;24969;-74
2022/04/04 02:40:33;;;;;;;6.60;3.83;;;;;;;-4.26;100.00;96060.22;5009179;28;24528;-74
2022/04/04 02:43:01;;;;;;;4.30;3.90;;;;;;;-4.26;100.00;96062.75;5009067;28;24456;-74
2022/04/04 02:45:29;;;;;;;4.38;3.67;;;;;;;-4.38;100.00;96051.78;5009211;28;24455;-74
2022/04/04 02:47:55;;;;;;;5.13;3.45;;;;;;;-4.37;100.00;96052.66;5009630;28;24455;-74
2022/04/04 02:50:23;;;;;;;6.20;4.13;;;;;;;-4.31;100.00;96054.31;5012926;28;24432;-74
2022/04/04 02:52:50;;;;;;;4.30;3.67;;;;;;;-4.34;100.00;96055.16;5013262;28;24969;-74
2022/04/04 02:58:01;;;;;;;5.47;3.47;;;;;;;-4.53;100.00;96051.78;5014592;28;24992;-74
2022/04/04 03:00:28;;;;;;;3.92;3.30;;;;;;;-4.66;100.00;96052.63;5013363;28;24424;-74
2022/04/04 03:02:56;;;;;;;4.82;3.55;;;;;;;-4.77;100.00;96050.09;5014104;28;24511;-74
2022/04/04 03:05:23;;;;;;;4.43;3.67;;;;;;;-4.78;100.00;96048.41;5013792;28;24439;-74
2022/04/04 03:07:51;;;;;;;7.30;3.70;;;;;;;-4.81;100.00;96050.09;5013900;28;24973;-74
2022/04/04 03:10:18;;;;;;;4.47;3.67;;;;;;;-4.95;100.00;96043.31;5013488;28;24436;-74
2022/04/04 03:12:46;;;;;;;6.50;3.87;;;;;;;-5.01;100.00;96047.53;5013537;28;24511;-74
2022/04/04 03:15:15;;;;;;;4.70;3.97;;;;;;;-5.02;100.00;96046.69;5013427;28;24424;-73
2022/04/04 03:17:43;;;;;;;3.90;3.40;;;;;;;-4.96;100.00;96041.66;5013572;28;24432;-73
2022/04/04 03:20:12;;;;;;;4.82;3.88;;;;;;;-4.91;100.00;96037.44;5016024;28;25025;-74
2022/04/04 03:22:43;;;;;;;4.72;3.60;;;;;;;-5.02;100.00;96044.16;5033665;28;24440;-74
2022/04/04 03:25:11;;;;;;;5.63;3.67;;;;;;;-5.05;100.00;96045.84;5033339;28;24419;-74
2022/04/04 03:27:38;;;;;;;4.20;3.80;;;;;;;-4.96;100.00;96044.19;5033429;28;24439;-73
2022/04/04 03:30:06;;;;;;;5.53;3.40;;;;;;;-4.92;100.00;96045.88;5033537;28;24969;-74
2022/04/04 03:32:33;;;;;;;8.40;3.70;;;;;;;-4.89;100.00;96042.50;5033770;28;24435;-74
2022/04/04 03:35:00;;;;;;;5.20;3.60;;;;;;;-4.92;100.00;96037.44;5033658;28;24442;-74
2022/04/04 03:37:26;;;;;;;4.35;3.95;;;;;;;-5.07;100.00;96045.00;5033422;28;25003;-75
2022/04/04 03:39:54;;;;;;;4.90;3.45;;;;;;;-5.23;100.00;96042.44;5032863;28;24496;-74
2022/04/04 03:42:21;;;;;;;4.10;3.70;;;;;;;-5.34;100.00;96036.47;5033284;28;24470;-74
2022/04/04 03:44:48;;;;;;;6.50;4.07;;;;;;;-5.35;100.00;96035.66;5033666;28;24420;-74
2022/04/04 03:47:14;;;;;;;4.90;3.92;;;;;;;-5.37;100.00;96041.56;5033251;28;24818;-74
2022/04/04 03:49:41;;;;;;;4.93;4.30;;;;;;;-5.39;100.00;96040.69;5033215;28;24428;-74
2022/04/04 03:52:08;;;;;;;3.75;3.45;;;;;;;-5.32;100.00;96039.88;5032832;28;24427;-74
2022/04/04 03:54:35;;;;;;;6.15;4.07;;;;;;;-5.22;100.00;96043.28;5032883;28;24478;-74
2022/04/04 03:57:04;;;;;;;5.57;3.90;;;;;;;-5.23;100.00;96039.03;5032426;28;24431;-73
2022/04/04 03:59:30;;;;;;;4.55;4.00;;;;;;;-5.22;100.00;96046.66;5032174;28;24416;-74
2022/04/04 04:01:57;;;;;;;5.40;3.95;;;;;;;-5.13;100.00;96036.56;5032405;28;24432;-74
2022/04/04 04:04:23;;;;;;;6.25;4.68;;;;;;;-5.03;100.00;96034.06;5032761;28;24443;-74
2022/04/04 04:06:51;;;;;;;7.50;5.05;;;;;;;-4.95;100.00;96043.31;5032401;28;24422;-74
2022/04/04 04:09:18;;;;;;;4.67;4.20;;;;;;;-4.99;100.00;96033.22;5032384;28;24518;-74
2022/04/04 04:11:45;;;;;;;4.47;3.90;;;;;;;-4.94;100.00;96039.13;5032082;28;24415;-74
2022/04/04 04:14:13;;;;;;;4.17;3.73;;;;;;;-5.03;100.00;96032.38;5032444;28;24404;-73
2022/04/04 04:16:40;;;;;;;5.50;4.07;;;;;;;-5.21;100.00;96035.69;5032297;28;24487;-74
2022/04/04 04:20:19;;;;;;;4.38;3.83;;;;;;;-5.31;100.00;96039.03;5032127;28;24534;-73
2022/04/04 04:21:54;;;;;;;5.43;4.13;;;;;;;-5.35;100.00;96030.59;5031253;28;24813;-74
2022/04/04 04:24:20;;;;;;;7.03;4.72;;;;;;;-5.43;100.00;96027.22;5031991;28;24439;-74
2022/04/04 04:26:47;;;;;;;5.85;4.03;;;;;;;-5.48;100.00;96023.00;5032284;28;24428;-73
2022/04/04 04:29:15;;;;;;;4.30;3.90;;;;;;;-5.39;100.00;96025.53;5032338;28;24444;-74
2022/04/04 04:31:41;;;;;;;4.78;4.03;;;;;;;-5.53;100.00;96015.41;5031832;28;24436;-73
2022/04/04 04:34:08;;;;;;;6.47;4.77;;;;;;;-5.51;100.00;96021.31;5032001;28;24415;-74
2022/04/04 04:36:36;;;;;;;4.75;4.20;;;;;;;-5.47;100.00;96019.63;5031600;28;24423;-73
2022/04/04 04:39:03;;;;;;;4.70;4.20;;;;;;;-5.51;100.00;96021.31;5031915;28;24963;-74
2022/04/04 04:41:29;;;;;;;4.57;4.17;;;;;;;-5.46;100.00;96018.78;5031450;28;24435;-74
2022/04/04 04:43:56;;;;;;;5.82;4.55;;;;;;;-5.64;100.00;96019.56;5031859;28;24440;-74
2022/04/04 04:46:23;;;;;;;6.45;4.53;;;;;;;-5.64;100.00;96019.56;5030017;28;24439;-74
2022/04/04 04:48:50;;;;;;;8.27;5.35;;;;;;;-5.51;100.00;96017.94;5029880;28;24427;-74
2022/04/04 04:51:16;;;;;;;4.93;4.03;;;;;;;-5.54;100.00;96025.50;5030792;28;24486;-74
2022/04/04 04:53:43;;;;;;;4.60;3.92;;;;;;;-5.70;100.00;96022.06;5031600;28;24423;-74
2022/04/04 04:56:09;;;;;;;5.87;4.33;;;;;;;-5.79;100.00;96022.84;5031474;28;24490;-75
2022/04/04 04:58:36;;;;;;;6.70;4.75;;;;;;;-5.76;100.00;96022.88;5030562;28;24431;-74
2022/04/04 05:01:02;;;;;;;6.20;4.75;;;;;;;-5.76;100.00;96017.84;5030213;28;24432;-76
2022/04/04 05:03:30;;;;;;;8.82;4.40;;;;;;;-5.70;100.00;96007.78;5030773;28;25221;-76
2022/04/04 05:05:57;;;;;;;5.88;4.68;;;;;;;-5.77;100.00;96015.31;5029310;28;25024;-75
2022/04/04 05:08:23;;;;;;;7.30;4.60;;;;;;;-5.75;100.00;96013.63;5031859;28;24432;-76
2022/04/04 05:10:51;;;;;;;6.95;5.35;;;;;;;-5.67;100.00;96010.31;5029065;28;25019;-74
2022/04/04 05:13:18;;;;;;;4.95;4.25;;;;;;;-5.77;100.00;96006.06;5028298;28;24423;-75
2022/04/04 05:15:45;;;;;;;8.85;7.25;;;;;;;-5.88;100.00;96015.25;5029544;28;24527;-75
2022/04/04 05:18:12;;;;;;;8.35;7.15;;;;;;;-5.76;100.00;96010.25;5029616;28;24442;-76
2022/04/04 05:20:40;;;;;;;7.10;6.33;;;;;;;-5.79;100.00;96017.81;5031243;28;24431;-76
2022/04/04 05:23:06;;;;;;;6.53;5.82;;;;;;;-5.83;100.00;96013.59;5031645;28;24450;-76
2022/04/04 05:25:33;;;;;;;8.82;5.97;;;;;;;-5.81;100.00;96011.09;5030927;28;24535;-76
2022/04/04 05:27:59;;;;;;;5.72;4.63;;;;;;;-5.76;100.00;96019.50;5031109;28;24474;-76
2022/04/04 05:30:26;;;;;;;7.40;5.22;;;;;;;-5.72;100.00;96017.00;5031354;28;24515;-76
2022/04/04 05:32:53;;;;;;;5.80;4.50;;;;;;;-5.66;100.00;96016.22;5031951;28;24439;-74
2022/04/04 05:35:20;;;;;;;6.07;5.00;;;;;;;-5.56;100.00;96009.50;5031491;28;24427;-75
2022/04/04 05:37:54;;;;;;;6.43;4.75;;;;;;;-5.41;100.00;96014.63;5030889;28;24515;-74
2022/04/04 05:40:20;;;;;;;6.43;4.28;;;;;;;-5.27;100.00;96012.94;5030913;28;24443;-74
2022/04/04 05:42:48;;;;;;;8.40;5.27;;;;;;;-5.12;100.00;96007.97;5031018;28;24439;-74
2022/04/04 05:45:14;;;;;;;6.22;4.30;;;;;;;-4.90;100.00;96013.00;5030706;28;24972;-74
2022/04/04 05:47:41;;;;;;;5.05;4.20;;;;;;;-4.69;100.00;96018.09;5034981;28;24426;-73
2022/04/04 05:50:09;;;;;;;4.75;4.18;;;;;;;-4.53;100.00;96011.34;5039387;28;24427;-74
2022/04/04 05:52:36;;;;;;;5.35;4.32;;;;;;;-4.38;100.00;96018.91;5034870;28;24423;-73
2022/04/04 05:55:04;;;;;;;4.75;4.25;;;;;;;-4.27;100.00;96013.00;5031891;28;24415;-74
2022/04/04 05:57:35;;;;;;;6.47;4.93;;;;;;;-4.25;100.00;96011.34;5031033;28;24435;-74
2022/04/04 06:00:04;;;;;;;5.95;5.38;;;;;;;-4.12;100.00;96015.50;5030610;28;25045;-72
2022/04/04 06:02:30;;;;;;;7.32;5.78;;;;;;;-4.14;100.00;96022.28;5031331;28;24482;-73
2022/04/04 06:04:57;;;;;;;6.88;5.53;;;;;;;-4.06;100.00;96015.50;5030905;28;24498;-72
2022/04/04 06:07:23;;;;;;;6.15;5.55;;;;;;;-3.91;100.00;96015.47;5030561;28;24416;-72
2022/04/04 06:09:50;;;;;;;7.20;5.80;;;;;;;-3.87;100.00;96018.00;5030226;28;24431;-71
2022/04/04 06:12:17;;;;;;;5.95;4.90;;;;;;;-3.86;100.00;96012.91;5030154;28;24971;-72
2022/04/04 06:14:44;;;;;;;5.30;4.50;;;;;;;-3.66;100.00;96016.25;5030457;28;24466;-70
2022/04/04 06:17:10;;;;;;;4.60;4.20;;;;;;;-3.49;100.00;96010.25;5030353;28;24427;-70
2022/04/04 06:19:38;;;;;;;4.18;3.78;;;;;;;-3.29;100.00;96008.47;5030464;28;24424;-70
2022/04/04 06:22:05;;;;;;;4.50;3.97;;;;;;;-3.63;100.00;96004.41;5029796;28;24436;-70
2022/04/04 06:24:32;;;;;;;5.80;4.00;;;;;;;-3.86;100.00;96004.47;5033331;28;24444;-71
2022/04/04 06:26:59;;;;;;;4.78;4.22;;;;;;;-3.75;100.00;96007.81;5034199;28;24431;-71
2022/04/04 06:29:28;;;;;;;5.20;4.20;;;;;;;-3.62;100.00;96006.09;5033978;28;24477;-71
2022/04/04 06:31:55;;;;;;;4.35;3.70;;;;;;;-3.59;100.00;96018.75;5033321;28;24444;-72
2022/04/04 06:34:22;;;;;;;7.20;4.20;;;;;;;-3.78;100.00;96016.28;5033758;28;24415;-71
2022/04/04 06:36:49;;;;;;;6.43;4.37;;;;;;;-3.94;100.00;96017.16;5033435;28;24431;-70
2022/04/04 06:39:16;;;;;;;4.60;3.63;;;;;;;-3.91;100.00;96009.56;5033807;28;24423;-71
2022/04/04 06:41:42;;;;;;;5.25;4.40;;;;;;;-3.74;100.00;96007.84;5033078;28;24470;-73
2022/04/04 06:44:09;;;;;;;5.70;4.50;;;;;;;-3.48;100.00;96012.81;5033329;28;24533;-70
2022/04/04 06:46:36;;;;;;;5.95;5.10;;;;;;;-3.57;100.00;96017.03;5033417;28;24428;-70
2022/04/04 06:49:03;;;;;;;8.15;5.43;;;;;;;-3.54;100.00;96001.84;5033438;28;24527;-72
2022/04/04 06:51:30;;;;;;;8.45;5.60;;;;;;;-3.61;100.00;96003.56;5033146;28;24435;-72
2022/04/04 06:53:56;;;;;;;6.95;5.60;;;;;;;-3.51;100.00;96004.38;5033275;28;24416;-71
2022/04/04 06:56:23;;;;;;;9.00;5.80;;;;;;;-3.37;100.00;96000.09;5033048;28;24953;-72
2022/04/04 06:58:51;;;;;;;9.85;6.63;;;;;;;-3.32;100.00;95998.38;5033298;28;24497;-71
2022/04/04 07:01:18;;;;;;;9.40;7.18;;;;;;;-3.24;100.00;95999.16;5032514;28;24798;-71
2022/04/04 07:03:47;;;;;;;14.15;6.75;;;;;;;-3.27;100.00;95994.09;5033197;28;24447;-74
2022/04/04 07:06:13;;;;;;;11.85;6.50;;;;;;;-3.14;100.00;95997.44;5032796;28;24420;-70
2022/04/04 07:08:40;;;;;;;11.43;7.28;;;;;;;-3.01;100.00;95993.94;5033428;28;24423;-70
2022/04/04 07:11:10;;;;;;;10.77;7.25;;;;;;;-2.51;100.00;95991.91;5033418;28;24824;-71
2022/04/04 07:13:36;;;;;;;12.88;7.40;;;;;;;-1.98;100.00;95990.56;5034036;28;24527;-71
2022/04/04 07:16:03;;;;;;;14.38;7.97;;;;;;;-1.72;100.00;95982.66;5033513;28;24428;-72
2022/04/04 07:18:30;;;;;;;11.30;7.07;;;;;;;-1.66;100.00;95989.38;5033053;28;24424;-71
2022/04/04 07:20:58;;;;;;;8.82;6.72;;;;;;;-1.40;100.00;95983.97;5033406;28;24436;-70
2022/04/04 07:23:24;;;;;;;11.10;6.95;;;;;;;-1.80;100.00;95985.28;5033176;28;24439;-72
2022/04/04 07:25:51;;;;;;;9.85;6.15;;;;;;;-1.94;100.00;95989.66;5033011;28;24416;-72
2022/04/04 07:28:20;;;;;;;8.27;7.00;;;;;;;-2.02;100.00;95982.13;5033026;28;24884;-71
2022/04/04 07:30:46;;;;;;;10.30;7.78;;;;;;;-1.97;100.00;95975.31;5032800;28;24438;-71
2022/04/04 07:33:15;;;;;;;12.25;8.48;;;;;;;-2.16;100.00;95983.13;5033235;28;24423;-72
2022/04/04 07:35:42;;;;;;;9.85;8.23;;;;;;;-2.04;100.00;95978.78;5031841;28;24529;-72
2022/04/04 07:38:11;;;;;;;9.32;7.75;;;;;;;-1.79;100.00;95984.41;5033226;28;24519;-73
2022/04/04 07:40:38;;;;;;;14.75;8.55;;;;;;;-1.70;100.00;95975.88;5032837;28;24435;-72
2022/04/04 07:43:05;;;;;;;12.93;9.45;;;;;;;-1.31;100.00;95978.78;5032903;28;24817;-72
2022/04/04 07:45:32;;;;;;;14.88;9.90;;;;;;;-0.99;100.00;95973.25;5032519;28;25038;-76
2022/04/04 07:47:59;;;;;;;14.10;10.32;;;;;;;-0.38;100.00;95974.81;5032096;28;24996;-72
2022/04/04 07:50:26;;;;;;;14.40;9.77;;;;;;;-0.07;100.00;95970.06;5031503;28;24451;-71
2022/04/04 07:52:53;;;;;;;12.77;9.00;;;;;;;0.39;100.00;95965.78;5032664;28;24493;-72
2022/04/04 07:55:21;;;;;;;11.50;9.43;;;;;;;0.71;95.44;95967.69;5032532;28;24486;-70
2022/04/04 07:57:47;;;;;;;9.57;8.55;;;;;;;1.13;96.60;95965.91;5032403;28;24416;-70
2022/04/04 08:00:17;;;;;;;12.90;8.50;;;;;;;1.37;92.87;95969.63;5032100;28;24423;-70
2022/04/04 08:02:44;;;;;;;10.25;8.55;;;;;;;1.06;91.82;95966.06;5032321;28;24427;-70
2022/04/04 08:05:11;;;;;;;9.82;7.63;;;;;;;1.08;94.78;95972.81;5032245;28;24826;-71
2022/04/04 08:07:40;;;;;;;13.73;8.77;;;;;;;1.05;95.25;95962.69;5032307;28;24423;-71
2022/04/04 08:10:08;;;;;;;11.90;8.20;;;;;;;1.10;95.06;95958.31;5031389;28;24462;-71
2022/04/04 08:12:36;;;;;;;10.75;7.88;;;;;;;1.71;93.65;95958.59;5031370;28;24474;-70
2022/04/04 08:15:03;;;;;;;9.30;7.95;;;;;;;1.50;90.41;95956.56;5032023;28;24423;-70
2022/04/04 08:17:30;;;;;;;13.20;8.77;;;;;;;1.98;95.63;95951.91;5032134;28;24426;-70
2022/04/04 08:19:57;;;;;;;18.15;8.88;;;;;;;2.02;89.41;95950.97;5031907;28;24527;-70
2022/04/04 08:22:23;;;;;;;8.88;6.20;;;;;;;2.24;89.22;95942.72;5032074;28;24435;-70
2022/04/04 08:24:50;;;;;;;11.68;7.20;;;;;;;2.63;87.60;95943.31;5032532;28;24507;-70
2022/04/04 08:27:17;;;;;;;12.13;8.82;;;;;;;2.16;85.38;95940.38;5031888;28;24455;-71
2022/04/04 08:29:45;;;;;;;14.23;9.23;;;;;;;2.20;89.01;95936.84;5031848;28;24434;-71
2022/04/04 08:32:11;;;;;;;7.80;6.65;;;;;;;2.81;86.27;95934.25;5031705;28;24427;-71
2022/04/04 08:34:38;;;;;;;8.57;7.60;;;;;;;3.22;84.04;95930.44;5031816;28;24470;-72
2022/04/04 08:37:04;;;;;;;8.88;6.95;;;;;;;2.95;79.59;95931.28;5032123;28;24412;-71
2022/04/04 08:39:31;;;;;;;7.90;6.83;;;;;;;3.39;76.06;95930.75;5031720;28;24427;-73
2022/04/04 08:41:58;;;;;;;7.50;5.47;;;;;;;3.56;73.92;95924.22;5031367;28;24446;-70
2022/04/04 08:44:25;;;;;;;9.27;7.00;;;;;;;2.67;75.46;95927.00;5032082;28;24447;-73
2022/04/04 08:46:53;;;;;;;7.93;5.47;;;;;;;2.60;74.95;95922.97;5032529;28;24435;-73
2022/04/04 08:49:20;;;;;;;6.18;5.57;;;;;;;2.81;75.28;95917.19;5031887;28;24428;-72
2022/04/04 08:51:48;;;;;;;7.55;4.97;;;;;;;2.87;75.21;95918.75;5031491;28;24884;-72
2022/04/04 08:54:15;;;;;;;9.10;5.80;;;;;;;3.10;73.36;95921.41;5031855;28;24447;-72
2022/04/04 08:56:43;;;;;;;6.65;5.38;;;;;;;2.84;75.80;95912.00;5032248;28;24442;-73
2022/04/04 08:59:10;;;;;;;6.55;5.43;;;;;;;3.34;76.08;95913.88;5035344;28;24439;-71
2022/04/04 09:01:36;;;;;;;5.50;4.53;;;;;;;3.21;69.03;95912.56;5039913;28;24470;-72
2022/04/04 09:04:19;;;;;;;6.10;4.95;;;;;;;3.48;74.18;95909.13;5035050;28;24431;-74
2022/04/04 09:06:50;;;;;;;6.70;4.78;;;;;;;3.61;69.19;95905.28;5034298;28;24488;-73
2022/04/04 09:09:24;;;;;;;6.22;4.53;;;;;;;3.56;67.08;95899.47;5032427;28;24427;-72
2022/04/04 09:12:06;;;;;;;5.40;4.20;;;;;;;3.26;68.04;95898.72;5031746;28;24434;-73
2022/04/04 09:14:35;;;;;;;8.25;4.18;;;;;;;2.55;65.49;95891.56;5031796;28;24443;-73
2022/04/04 09:17:02;;;;;;;5.07;4.07;;;;;;;2.94;69.13;95894.66;5031955;28;24439;-71
2022/04/04 09:19:31;;;;;;;4.63;4.22;;;;;;;3.22;68.18;95886.09;5031142;28;24412;-72
2022/04/04 09:21:57;;;;;;;5.55;4.28;;;;;;;3.15;67.78;95885.44;5030444;28;24435;-67
2022/04/04 09:24:43;;;;;;;6.40;4.28;;;;;;;2.59;64.42;95881.19;5030921;28;24490;-70
2022/04/04 09:27:11;;;;;;;4.63;4.20;;;;;;;2.75;67.65;95878.19;5022023;28;24810;-71
2022/04/04 09:29:42;;;;;;;5.55;4.28;;;;;;;2.77;66.45;95882.34;5025330;28;25011;-71
2022/04/04 09:32:11;;;;;;;4.88;3.53;;;;;;;2.93;64.40;95875.06;5022467;28;24528;-69
2022/04/04 09:35:01;;;;;;;4.40;4.00;;;;;;;3.66;65.79;95863.31;5030607;28;24945;-69
2022/04/04 09:37:31;;;;;;;5.60;4.15;;;;;;;3.58;63.58;95869.53;5027583;28;25269;-69
2022/04/04 09:40:09;;;;;;;4.17;3.80;;;;;;;3.66;63.54;95871.81;5025593;28;24439;-69
2022/04/04 09:42:36;;;;;;;6.97;4.10;;;;;;;3.94;65.50;95864.03;5030439;28;24462;-69
2022/04/04 09:45:05;;;;;;;4.25;3.85;;;;;;;3.66;60.70;95855.63;5030504;28;24447;-69
2022/04/04 09:47:46;;;;;;;5.30;4.22;;;;;;;3.86;62.42;95845.53;5030666;28;24415;-70
2022/04/04 09:50:30;;;;;;;4.63;4.15;;;;;;;3.88;62.81;95852.25;5021865;28;24447;-70
2022/04/04 09:52:57;;;;;;;5.80;4.23;;;;;;;3.54;63.22;95844.06;5030572;28;24463;-70
2022/04/04 09:55:28;;;;;;;6.43;3.80;;;;;;;3.74;63.75;95843.38;5030487;28;24506;-70
2022/04/04 09:57:56;;;;;;;5.43;4.00;;;;;;;3.55;64.31;95838.88;5032347;28;24448;-70
2022/04/04 10:00:22;;;;;;;7.53;3.88;;;;;;;3.91;63.93;95835.13;5036869;28;24419;-70
2022/04/04 10:02:49;;;;;;;8.35;4.55;;;;;;;4.04;65.43;95844.88;5036979;28;24424;-70
2022/04/04 10:05:17;;;;;;;4.28;3.83;;;;;;;3.75;62.14;95833.09;5036916;28;24980;-70
2022/04/04 10:07:46;;;;;;;4.75;4.07;;;;;;;4.00;63.28;95827.09;5036775;28;24422;-70
2022/04/04 10:10:13;;;;;;;4.97;3.58;;;;;;;3.92;62.25;95826.53;5036365;28;24435;-70
2022/04/04 10:12:40;;;;;;;6.40;4.60;;;;;;;3.93;65.52;95818.81;5032481;28;24443;-70
2022/04/04 10:15:08;;;;;;;4.80;3.92;;;;;;;4.09;66.52;95817.34;5033401;28;24482;-70
2022/04/04 10:17:35;;;;;;;4.75;3.70;;;;;;;3.79;64.46;95821.03;5036703;28;24964;-70
2022/04/04 10:20:05;;;;;;;4.65;3.78;;;;;;;3.68;63.79;95810.31;5036277;28;24420;-70
2022/04/04 10:22:32;;;;;;;5.15;3.90;;;;;;;3.52;61.97;95805.72;5037096;28;24426;-70
2022/04/04 10:25:02;;;;;;;6.68;4.00;;;;;;;3.51;64.05;95805.78;5036701;28;24501;-70
2022/04/04 10:27:29;;;;;;;10.30;3.88;;;;;;;3.70;65.96;95806.78;5036751;28;24960;-70
2022/04/04 10:30:02;;;;;;;5.28;3.92;;;;;;;3.80;63.01;95797.06;5036444;28;24412;-70
2022/04/04 10:32:30;;;;;;;5.65;4.55;;;;;;;3.30;64.14;95786.84;5035329;28;24458;-70
2022/04/04 10:34:57;;;;;;;4.95;3.83;;;;;;;2.96;65.16;95790.53;5035176;28;24440;-70
2022/04/04 10:37:28;;;;;;;4.38;3.88;;;;;;;3.12;63.78;95784.03;5035457;28;24571;-70
2022/04/04 10:39:55;;;;;;;3.95;3.58;;;;;;;3.14;65.42;95772.00;5035131;28;25493;-70
2022/04/04 10:42:32;;;;;;;5.53;3.95;;;;;;;2.98;67.30;95778.53;5032573;28;24431;-70
2022/04/04 10:45:02;;;;;;;5.60;3.80;;;;;;;3.08;64.79;95761.16;5035037;28;24981;-70
2022/04/04 10:47:30;;;;;;;6.18;4.05;;;;;;;3.04;67.06;95773.22;5035089;28;24539;-70
2022/04/04 10:49:58;;;;;;;7.15;4.25;;;;;;;2.85;65.79;95767.03;5034826;28;24529;-71
2022/04/04 10:52:42;;;;;;;6.15;4.53;;;;;;;2.92;66.87;95761.66;5035567;28;24427;-70
2022/04/04 10:55:40;;;;;;;7.80;4.20;;;;;;;3.11;64.87;95759.31;5032870;28;24434;-70
2022/04/04 10:58:19;;;;;;;6.22;4.75;;;;;;;3.49;67.42;95762.31;5013377;28;24803;-70
2022/04/04 11:01:00;;;;;;;6.30;4.30;;;;;;;3.41;66.60;95759.16;5016450;28;24463;-71
2022/04/04 11:03:31;;;;;;;5.78;4.25;;;;;;;3.50;67.11;95753.72;5016607;28;24423;-70
2022/04/04 11:09:01;;;;;;;4.75;3.70;;;;;;;3.79;66.22;95736.47;5016301;28;24473;-71
2022/04/04 11:11:45;;;;;;;4.05;3.65;;;;;;;3.35;67.03;95742.28;5028476;28;24435;-70
2022/04/04 11:14:13;;;;;;;6.18;4.38;;;;;;;3.60;66.27;95739.72;5031744;28;24464;-70
2022/04/04 11:17:33;;;;;;;6.43;3.83;;;;;;;3.60;67.36;95729.47;5032517;28;25003;-70
2022/04/04 11:20:04;;;;;;;4.35;3.95;;;;;;;3.53;67.91;95725.44;5031957;28;24467;-70
2022/04/04 11:22:33;;;;;;;5.20;4.40;;;;;;;3.75;66.54;95724.69;5032898;28;24969;-71
2022/04/04 11:25:03;;;;;;;4.70;4.07;;;;;;;3.90;66.34;95729.22;5032428;28;24471;-70
2022/04/04 11:27:33;;;;;;;5.63;3.95;;;;;;;3.88;65.42;95708.78;5032652;28;24988;-70
2022/04/04 11:30:02;;;;;;;5.07;4.57;;;;;;;3.71;67.69;95705.16;5032101;28;24434;-70
2022/04/04 11:32:31;;;;;;;4.55;4.10;;;;;;;3.95;68.68;95704.25;5032211;28;24424;-70
2022/04/04 11:35:01;;;;;;;4.88;4.00;;;;;;;3.95;68.42;95706.81;5031401;28;24439;-70
2022/04/04 11:37:29;;;;;;;5.15;4.47;;;;;;;4.20;66.31;95695.66;5031575;28;24428;-72
2022/04/04 11:40:03;;;;;;;5.95;4.30;;;;;;;4.29;65.94;95692.72;5028498;28;24987;-70